createdAt,value
2022-12-17T00:01:57.628Z,102137.59
2022-12-17T00:04:42.890Z,102128.69
2022-12-17T00:07:28.399Z,102129.13
2022-12-17T00:10:15.748Z,102124.22
2022-12-17T00:13:00.938Z,102120.34
2022-12-17T00:15:46.553Z,102121.78
2022-12-17T00:18:31.849Z,102131.50
2022-12-17T00:21:19.409Z,102136.81
2022-12-17T00:24:05.698Z,102112.09
2022-12-17T00:26:51.647Z,102118.59
2022-12-17T00:29:37.673Z,102112.63
2022-12-17T00:32:23.773Z,102104.72
2022-12-17T00:35:09.249Z,102101.91
2022-12-17T00:37:55.549Z,102105.63
2022-12-17T00:40:41.908Z,102109.22
2022-12-17T00:43:32.203Z,102117.84
2022-12-17T00:46:18.206Z,102120.81
2022-12-17T00:49:04.107Z,102113.66
2022-12-17T00:51:49.991Z,102106.13
2022-12-17T00:54:35.185Z,102110.66
2022-12-17T00:57:20.650Z,102112.97
2022-12-17T01:00:05.954Z,102107.75
2022-12-17T01:02:52.187Z,102113.44
2022-12-17T01:05:37.872Z,102116.00
2022-12-17T01:08:32.682Z,102132.41
2022-12-17T01:11:25.180Z,102116.38
2022-12-17T01:14:12.067Z,102127.25
2022-12-17T01:16:57.448Z,102119.75
2022-12-17T01:19:43.096Z,102130.78
2022-12-17T01:22:28.600Z,102133.44
2022-12-17T01:25:13.983Z,102124.38
2022-12-17T01:27:59.189Z,102127.63
2022-12-17T01:30:44.604Z,102116.34
2022-12-17T01:33:30.696Z,102127.81
2022-12-17T01:36:17.572Z,102131.22
2022-12-17T01:39:03.216Z,102133.81
2022-12-17T01:41:48.809Z,102138.13
2022-12-17T01:45:02.143Z,102155.13
2022-12-17T01:47:56.752Z,102169.66
2022-12-17T01:50:47.471Z,102166.63
2022-12-17T01:53:36.630Z,102166.81
2022-12-17T01:56:24.068Z,102183.34
2022-12-17T01:59:09.513Z,102166.59
2022-12-17T02:01:55.072Z,102155.06
2022-12-17T02:04:40.723Z,102184.09
2022-12-17T02:08:23.851Z,102185.16
2022-12-17T02:11:22.610Z,102186.09
2022-12-17T02:14:30.805Z,102172.81
2022-12-17T02:17:21.585Z,102179.50
2022-12-17T02:20:57.542Z,102178.72
2022-12-17T02:24:27.758Z,102177.97
2022-12-17T02:27:20.547Z,102177.94
2022-12-17T02:30:13.125Z,102195.44
2022-12-17T02:33:03.376Z,102192.22
2022-12-17T02:35:55.102Z,102184.78
2022-12-17T02:38:46.013Z,102182.53
2022-12-17T02:41:50.683Z,102187.50
2022-12-17T02:44:39.420Z,102200.31
2022-12-17T02:47:34.774Z,102191.84
2022-12-17T02:50:20.106Z,102196.16
2022-12-17T02:53:07.612Z,102207.94
2022-12-17T02:55:54.576Z,102215.53
2022-12-17T02:58:40.644Z,102210.69
2022-12-17T03:01:29.398Z,102216.72
2022-12-17T03:04:14.800Z,102216.56
2022-12-17T03:07:01.857Z,102214.06
2022-12-17T03:09:50.268Z,102224.84
2022-12-17T03:12:35.642Z,102221.13
2022-12-17T03:15:22.720Z,102216.28
2022-12-17T03:18:22.143Z,102222.44
2022-12-17T03:21:14.775Z,102224.09
2022-12-17T03:24:01.599Z,102212.59
2022-12-17T03:26:47.120Z,102223.63
2022-12-17T03:29:33.120Z,102225.06
2022-12-17T03:32:18.649Z,102226.16
2022-12-17T03:35:03.764Z,102227.72
2022-12-17T03:37:49.985Z,102227.00
2022-12-17T03:40:37.791Z,102225.34
2022-12-17T03:43:28.074Z,102217.94
2022-12-17T03:46:14.321Z,102232.31
2022-12-17T03:49:06.181Z,102238.00
2022-12-17T03:51:54.070Z,102216.25
2022-12-17T03:54:39.569Z,102202.03
2022-12-17T03:57:25.161Z,102211.19
2022-12-17T04:00:10.349Z,102211.03
2022-12-17T04:02:59.320Z,102210.19
2022-12-17T04:05:44.728Z,102220.50
2022-12-17T04:08:30.314Z,102219.59
2022-12-17T04:11:15.842Z,102224.66
2022-12-17T04:14:01.319Z,102230.66
2022-12-17T04:16:46.756Z,102216.13
2022-12-17T04:19:32.642Z,102228.03
2022-12-17T04:22:18.212Z,102240.97
2022-12-17T04:25:03.734Z,102250.19
2022-12-17T04:27:48.880Z,102233.91
2022-12-17T04:30:34.760Z,102240.09
2022-12-17T04:33:21.669Z,102213.81
2022-12-17T04:36:14.731Z,102220.97
2022-12-17T04:39:00.029Z,102239.88
2022-12-17T04:41:45.468Z,102223.28
2022-12-17T04:44:31.506Z,102240.25
2022-12-17T04:47:19.580Z,102251.91
2022-12-17T04:50:05.063Z,102241.13
2022-12-17T04:52:50.311Z,102259.44
2022-12-17T04:55:35.837Z,102249.44
2022-12-17T04:58:23.910Z,102256.91
2022-12-17T05:01:13.883Z,102257.53
2022-12-17T05:03:59.251Z,102254.03
2022-12-17T05:06:45.188Z,102256.53
2022-12-17T05:09:30.355Z,102259.66
2022-12-17T05:12:16.015Z,102260.31
2022-12-17T05:15:01.246Z,102251.13
2022-12-17T05:17:46.470Z,102260.66
2022-12-17T05:20:32.340Z,102265.78
2022-12-17T05:23:25.160Z,102260.78
2022-12-17T05:26:24.030Z,102264.38
2022-12-17T05:29:15.569Z,102246.84
2022-12-17T05:32:01.110Z,102251.88
2022-12-17T05:34:46.297Z,102250.84
2022-12-17T05:37:31.774Z,102260.25
2022-12-17T05:40:17.482Z,102251.25
2022-12-17T05:43:24.004Z,102247.84
2022-12-17T05:46:10.511Z,102249.44
2022-12-17T05:48:55.845Z,102245.22
2022-12-17T05:51:41.519Z,102263.63
2022-12-17T05:54:27.122Z,102256.97
2022-12-17T05:57:13.610Z,102261.16
2022-12-17T05:59:59.235Z,102260.72
2022-12-17T06:02:45.297Z,102256.69
2022-12-17T06:05:32.265Z,102266.66
2022-12-17T06:08:26.245Z,102270.59
2022-12-17T06:11:12.313Z,102252.94
2022-12-17T06:13:57.688Z,102260.25
2022-12-17T06:16:43.399Z,102250.31
2022-12-17T06:19:28.777Z,102259.00
2022-12-17T06:22:14.353Z,102265.75
2022-12-17T06:24:59.457Z,102270.72
2022-12-17T06:27:45.029Z,102285.13
2022-12-17T06:30:31.217Z,102284.22
2022-12-17T06:33:30.316Z,102277.50
2022-12-17T06:36:22.054Z,102283.50
2022-12-17T06:39:08.571Z,102300.50
2022-12-17T06:41:58.954Z,102292.78
2022-12-17T06:44:49.306Z,102301.13
2022-12-17T06:47:35.088Z,102300.66
2022-12-17T06:50:20.763Z,102298.00
2022-12-17T06:53:06.493Z,102291.38
2022-12-17T06:55:52.097Z,102296.50
2022-12-17T06:58:37.297Z,102300.66
2022-12-17T07:01:22.680Z,102284.88
2022-12-17T07:04:08.088Z,102300.88
2022-12-17T07:06:53.544Z,102296.69
2022-12-17T07:09:39.037Z,102305.22
2022-12-17T07:12:24.925Z,102319.44
2022-12-17T07:15:10.379Z,102314.50
2022-12-17T07:17:55.747Z,102332.16
2022-12-17T07:20:41.202Z,102344.84
2022-12-17T07:23:27.436Z,102335.59
2022-12-17T07:26:12.978Z,102345.69
2022-12-17T07:28:58.461Z,102347.38
2022-12-17T07:31:44.228Z,102362.41
2022-12-17T07:34:29.467Z,102354.81
2022-12-17T07:37:20.194Z,102367.31
2022-12-17T07:40:06.412Z,102365.00
2022-12-17T07:42:52.126Z,102358.44
2022-12-17T07:45:37.888Z,102369.28
2022-12-17T07:48:23.731Z,102366.44
2022-12-17T07:51:10.041Z,102357.84
2022-12-17T07:53:55.270Z,102366.22
2022-12-17T07:56:40.892Z,102364.75
2022-12-17T07:59:26.460Z,102369.16
2022-12-17T08:02:15.274Z,102371.53
2022-12-17T08:05:01.150Z,102384.16
2022-12-17T08:07:46.624Z,102390.19
2022-12-17T08:10:32.327Z,102399.75
2022-12-17T08:13:20.752Z,102402.91
2022-12-17T08:16:07.470Z,102410.41
2022-12-17T08:18:52.784Z,102427.88
2022-12-17T08:21:38.372Z,102422.16
2022-12-17T08:24:23.996Z,102429.47
2022-12-17T08:27:09.491Z,102431.53
2022-12-17T08:29:54.978Z,102441.94
2022-12-17T08:32:41.583Z,102435.16
2022-12-17T08:35:27.476Z,102440.94
2022-12-17T08:38:19.896Z,102443.91
2022-12-17T08:41:05.419Z,102438.84
2022-12-17T08:43:51.075Z,102447.59
2022-12-17T08:46:36.623Z,102449.69
2022-12-17T08:49:22.076Z,102451.03
2022-12-17T08:52:07.721Z,102449.41
2022-12-17T08:54:53.226Z,102453.31
2022-12-17T08:57:38.837Z,102455.19
2022-12-17T09:00:25.257Z,102468.19
2022-12-17T09:03:19.765Z,102460.53
2022-12-17T09:06:05.769Z,102459.97
2022-12-17T09:08:51.495Z,102459.69
2022-12-17T09:11:36.758Z,102458.50
2022-12-17T09:14:22.026Z,102455.09
2022-12-17T09:17:07.409Z,102453.66
2022-12-17T09:19:52.804Z,102454.25
2022-12-17T09:22:38.305Z,102454.13
2022-12-17T09:25:24.456Z,102472.63
2022-12-17T09:28:09.981Z,102465.88
2022-12-17T09:30:55.450Z,102474.50
2022-12-17T09:33:40.971Z,102480.97
2022-12-17T09:36:27.401Z,102485.88
2022-12-17T09:39:14.569Z,102483.31
2022-12-17T09:42:36.088Z,102469.81
2022-12-17T09:46:16.480Z,102479.22
2022-12-17T09:49:30.224Z,102472.09
2022-12-17T09:52:15.369Z,102475.88
2022-12-17T09:55:08.082Z,102478.41
2022-12-17T09:57:56.307Z,102471.34
2022-12-17T10:00:45.881Z,102475.25
2022-12-17T10:03:38.589Z,102466.75
2022-12-17T10:06:37.564Z,102483.88
2022-12-17T10:09:32.868Z,102465.50
2022-12-17T10:12:37.291Z,102471.13
2022-12-17T10:15:24.530Z,102466.50
2022-12-17T10:18:10.328Z,102471.19
2022-12-17T10:21:17.128Z,102476.38
2022-12-17T10:24:02.842Z,102465.84
2022-12-17T10:26:52.201Z,102468.78
2022-12-17T10:29:48.132Z,102468.94
2022-12-17T10:32:33.806Z,102462.09
2022-12-17T10:35:27.028Z,102464.16
2022-12-17T10:38:12.667Z,102458.84
2022-12-17T10:40:57.999Z,102464.19
2022-12-17T10:43:51.531Z,102449.53
2022-12-17T10:46:50.769Z,102448.50
2022-12-17T10:49:42.623Z,102454.00
2022-12-17T10:52:49.635Z,102438.78
2022-12-17T10:55:46.595Z,102445.13
2022-12-17T10:58:42.509Z,102449.22
2022-12-17T11:01:59.024Z,102444.13
2022-12-17T11:04:52.110Z,102438.69
2022-12-17T11:07:50.514Z,102441.09
2022-12-17T11:10:43.731Z,102445.09
2022-12-17T11:13:46.554Z,102446.00
2022-12-17T11:17:05.809Z,102434.97
2022-12-17T11:20:06.571Z,102444.19
2022-12-17T11:23:13.255Z,102445.75
2022-12-17T11:26:23.303Z,102434.78
2022-12-17T11:29:08.934Z,102437.00
2022-12-17T11:32:48.542Z,102451.50
2022-12-17T11:35:44.952Z,102444.44
2022-12-17T11:38:45.362Z,102426.75
2022-12-17T11:41:42.772Z,102452.84
2022-12-17T11:44:50.063Z,102452.50
2022-12-17T11:48:06.953Z,102446.72
2022-12-17T11:51:00.587Z,102427.34
2022-12-17T11:54:09.043Z,102427.13
2022-12-17T11:57:03.934Z,102420.59
2022-12-17T11:59:58.299Z,102417.13
2022-12-17T12:03:32.446Z,102415.63
2022-12-17T12:06:22.345Z,102415.78
2022-12-17T12:09:41.543Z,102411.66
2022-12-17T12:13:00.798Z,102404.38
2022-12-17T12:16:26.093Z,102402.00
2022-12-17T12:19:34.841Z,102404.81
2022-12-17T12:22:57.502Z,102397.56
2022-12-17T12:26:15.566Z,102392.66
2022-12-17T12:29:16.800Z,102397.63
2022-12-17T12:32:23.404Z,102388.59
2022-12-17T12:35:11.877Z,102381.56
2022-12-17T12:37:58.275Z,102394.44
2022-12-17T12:41:00.861Z,102398.69
2022-12-17T12:43:54.833Z,102406.72
2022-12-17T12:47:17.903Z,102399.47
2022-12-17T12:50:14.989Z,102397.97
2022-12-17T12:53:00.708Z,102396.56
2022-12-17T12:56:01.001Z,102400.41
2022-12-17T12:58:50.887Z,102396.88
2022-12-17T13:01:38.129Z,102397.81
2022-12-17T13:04:52.215Z,102400.38
2022-12-17T13:07:29.414Z,102396.88
2022-12-17T13:09:59.594Z,102380.63
2022-12-17T13:12:45.655Z,102390.31
2022-12-17T13:15:27.737Z,102389.19
2022-12-17T13:18:14.357Z,102385.47
2022-12-17T13:20:41.285Z,102391.75
2022-12-17T13:23:38.044Z,102378.03
2022-12-17T13:26:40.402Z,102376.41
2022-12-17T13:29:33.060Z,102373.13
2022-12-17T13:32:08.971Z,102375.78
2022-12-17T13:35:10.838Z,102373.25
2022-12-17T13:38:07.997Z,102373.88
2022-12-17T13:41:13.026Z,102370.13
2022-12-17T13:43:48.502Z,102363.47
2022-12-17T13:46:22.668Z,102372.47
2022-12-17T13:49:04.621Z,102358.25
2022-12-17T13:51:36.361Z,102358.97
2022-12-17T13:54:04.940Z,102364.22
2022-12-17T13:56:35.515Z,102359.72
2022-12-17T13:59:09.046Z,102361.84
2022-12-17T14:01:47.017Z,102354.03
2022-12-17T14:04:40.967Z,102354.97
2022-12-17T14:07:07.901Z,102366.41
2022-12-17T14:09:40.552Z,102367.38
2022-12-17T14:12:23.615Z,102368.88
2022-12-17T14:14:58.051Z,102376.72
2022-12-17T14:17:27.318Z,102367.56
2022-12-17T14:20:07.025Z,102373.72
2022-12-17T14:22:38.995Z,102373.03
2022-12-17T14:25:15.251Z,102368.41
2022-12-17T14:28:04.130Z,102374.72
2022-12-17T14:31:17.181Z,102375.66
2022-12-17T14:33:33.361Z,102372.56
2022-12-17T14:36:07.577Z,102377.19
2022-12-17T14:38:48.317Z,102371.19
2022-12-17T14:41:34.486Z,102370.09
2022-12-17T14:44:03.503Z,102373.19
2022-12-17T14:46:33.025Z,102376.97
2022-12-17T14:49:04.050Z,102379.41
2022-12-17T14:51:41.516Z,102387.78
2022-12-17T14:54:15.851Z,102378.09
2022-12-17T14:56:44.509Z,102378.16
2022-12-17T14:59:47.029Z,102386.84
2022-12-17T15:02:26.522Z,102383.63
2022-12-17T15:04:59.247Z,102392.22
2022-12-17T15:07:29.997Z,102393.03
2022-12-17T15:09:58.090Z,102393.03
2022-12-17T15:12:25.710Z,102381.53
2022-12-17T15:14:53.471Z,102388.13
2022-12-17T15:17:20.597Z,102387.97
2022-12-17T15:19:54.145Z,102387.22
2022-12-17T15:22:23.667Z,102383.13
2022-12-17T15:24:50.884Z,102393.47
2022-12-17T15:29:17.133Z,102397.31
2022-12-17T15:31:44.148Z,102390.56
2022-12-17T15:34:12.327Z,102404.44
2022-12-17T15:36:40.011Z,102404.75
2022-12-17T15:39:07.119Z,102410.66
2022-12-17T15:41:53.110Z,102410.66
2022-12-17T15:44:20.008Z,102403.16
2022-12-17T15:46:47.023Z,102419.66
2022-12-17T15:49:14.289Z,102424.94
2022-12-17T15:51:41.195Z,102429.97
2022-12-17T15:54:08.739Z,102425.72
2022-12-17T16:05:00.185Z,102460.38
2022-12-17T16:07:27.386Z,102448.03
2022-12-17T16:09:54.328Z,102445.59
2022-12-17T16:12:21.444Z,102451.84
2022-12-17T16:14:49.109Z,102445.25
2022-12-17T16:17:16.058Z,102445.44
2022-12-17T16:19:43.047Z,102444.66
2022-12-17T16:22:10.029Z,102454.41
2022-12-17T16:24:40.956Z,102438.91
2022-12-17T16:27:08.380Z,102444.72
2022-12-17T16:29:35.293Z,102444.63
2022-12-17T16:32:02.270Z,102445.50
2022-12-17T16:34:32.103Z,102447.59
2022-12-17T16:37:00.478Z,102451.53
2022-12-17T16:39:27.717Z,102458.38
2022-12-17T16:41:54.790Z,102440.63
2022-12-17T16:44:21.813Z,102461.75
2022-12-17T16:46:48.796Z,102452.22
2022-12-17T16:49:19.122Z,102458.63
2022-12-17T16:51:51.771Z,102453.97
2022-12-17T16:54:22.555Z,102462.38
2022-12-17T16:56:50.369Z,102446.06
2022-12-17T16:59:18.282Z,102454.41
2022-12-17T17:01:48.453Z,102448.09
2022-12-17T17:04:17.932Z,102453.38
2022-12-17T17:06:51.550Z,102454.88
2022-12-17T17:09:19.695Z,102461.66
2022-12-17T17:11:51.199Z,102449.28
2022-12-17T17:14:19.078Z,102453.56
2022-12-17T17:16:46.217Z,102448.53
2022-12-17T17:19:13.318Z,102461.13
2022-12-17T17:21:42.663Z,102453.25
2022-12-17T17:24:20.967Z,102458.06
2022-12-17T17:26:50.172Z,102451.28
2022-12-17T17:29:17.484Z,102451.16
2022-12-17T17:34:31.912Z,102448.41
2022-12-17T17:36:58.881Z,102450.97
2022-12-17T17:39:25.866Z,102457.31
2022-12-17T17:41:52.850Z,102459.44
2022-12-17T17:44:19.867Z,102448.41
2022-12-17T17:46:46.970Z,102459.94
2022-12-17T17:49:14.199Z,102454.38
2022-12-17T17:54:30.963Z,102464.44
2022-12-17T17:56:58.127Z,102463.91
2022-12-17T17:59:31.219Z,102471.16
2022-12-17T18:02:01.541Z,102479.84
2022-12-17T18:04:28.667Z,102474.94
2022-12-17T18:07:24.379Z,102469.75
2022-12-17T18:09:42.776Z,102467.25
2022-12-17T18:12:28.040Z,102473.41
2022-12-17T18:17:45.190Z,102485.00
2022-12-17T18:20:13.185Z,102481.16
2022-12-17T18:22:40.195Z,102488.72
2022-12-17T18:25:07.530Z,102494.16
2022-12-17T18:27:34.483Z,102479.19
2022-12-17T18:30:01.526Z,102485.00
2022-12-17T18:32:28.516Z,102493.13
2022-12-17T18:34:55.613Z,102496.31
2022-12-17T18:37:22.733Z,102506.31
2022-12-17T18:39:49.842Z,102504.75
2022-12-17T18:42:35.177Z,102518.28
2022-12-17T18:45:02.363Z,102515.19
2022-12-17T18:47:29.437Z,102509.16
2022-12-17T18:49:57.490Z,102511.25
2022-12-17T18:52:24.874Z,102509.66
2022-12-17T18:54:51.910Z,102518.75
2022-12-17T18:57:18.964Z,102511.13
2022-12-17T18:59:45.924Z,102521.06
2022-12-17T19:02:14.350Z,102532.84
2022-12-17T19:04:41.727Z,102538.66
2022-12-17T19:07:08.819Z,102534.03
2022-12-17T19:09:36.589Z,102529.50
2022-12-17T19:12:09.803Z,102535.09
2022-12-17T19:14:37.497Z,102538.25
2022-12-17T19:17:06.020Z,102530.19
2022-12-17T19:19:33.752Z,102520.16
2022-12-17T19:22:02.046Z,102530.44
2022-12-17T19:24:29.402Z,102535.78
2022-12-17T19:26:56.788Z,102540.69
2022-12-17T19:29:23.820Z,102538.25
2022-12-17T19:31:50.956Z,102523.09
2022-12-17T19:34:19.548Z,102525.78
2022-12-17T19:36:46.812Z,102514.78
2022-12-17T19:39:18.527Z,102513.97
2022-12-17T19:41:45.978Z,102501.53
2022-12-17T19:44:16.145Z,102509.34
2022-12-17T19:46:43.922Z,102502.63
2022-12-17T19:49:15.723Z,102505.19
2022-12-17T19:51:44.406Z,102499.72
2022-12-17T19:54:17.679Z,102502.72
2022-12-17T19:56:45.601Z,102509.81
2022-12-17T19:59:13.547Z,102505.75
2022-12-17T20:01:46.621Z,102502.41
2022-12-17T20:04:16.246Z,102509.28
2022-12-17T20:06:44.802Z,102511.28
2022-12-17T20:09:12.933Z,102512.09
2022-12-17T20:11:40.754Z,102503.44
2022-12-17T20:14:26.511Z,102501.78
2022-12-17T20:16:57.965Z,102498.41
2022-12-17T20:19:31.102Z,102501.94
2022-12-17T20:22:04.410Z,102505.56
2022-12-17T20:24:32.341Z,102510.63
2022-12-17T20:27:00.875Z,102491.41
2022-12-17T20:29:28.118Z,102499.75
2022-12-17T20:31:55.870Z,102508.19
2022-12-17T20:34:23.782Z,102506.63
2022-12-17T20:36:52.798Z,102513.34
2022-12-17T20:39:25.906Z,102511.63
2022-12-17T20:41:53.536Z,102503.16
2022-12-17T20:44:20.586Z,102511.88
2022-12-17T20:46:47.674Z,102515.59
2022-12-17T20:49:14.937Z,102512.22
2022-12-17T20:51:42.310Z,102515.44
2022-12-17T20:54:10.914Z,102512.06
2022-12-17T20:56:40.256Z,102513.66
2022-12-17T20:59:14.334Z,102530.84
2022-12-17T21:01:41.391Z,102532.41
2022-12-17T21:04:08.493Z,102527.25
2022-12-17T21:06:42.146Z,102525.50
2022-12-17T21:09:09.445Z,102533.25
2022-12-17T21:11:38.178Z,102534.22
2022-12-17T21:14:12.256Z,102538.59
2022-12-17T21:16:40.100Z,102544.44
2022-12-17T21:19:09.016Z,102527.25
2022-12-17T21:21:38.333Z,102539.13
2022-12-17T21:24:07.061Z,102539.09
2022-12-17T21:26:40.897Z,102530.69
2022-12-17T21:29:09.540Z,102552.84
2022-12-17T21:31:43.041Z,102548.38
2022-12-17T21:34:22.443Z,102555.25
2022-12-17T21:36:50.729Z,102554.47
2022-12-17T21:39:18.876Z,102558.94
2022-12-17T21:42:08.675Z,102568.09
2022-12-17T21:44:36.553Z,102555.41
2022-12-17T21:47:03.726Z,102564.94
2022-12-17T21:49:30.698Z,102553.94
2022-12-17T21:51:59.389Z,102552.94
2022-12-17T21:54:26.754Z,102544.47
2022-12-17T21:56:53.725Z,102547.16
2022-12-17T21:59:20.694Z,102553.00
2022-12-17T22:01:48.039Z,102554.78
2022-12-17T22:04:15.263Z,102553.19
2022-12-17T22:06:46.606Z,102558.25
2022-12-17T22:09:27.524Z,102549.91
2022-12-17T22:12:26.946Z,102553.38
2022-12-17T22:14:53.943Z,102566.06
2022-12-17T22:17:21.353Z,102562.88
2022-12-17T22:19:48.291Z,102572.94
2022-12-17T22:22:15.212Z,102567.91
2022-12-17T22:24:42.128Z,102567.09
2022-12-17T22:27:09.774Z,102568.75
2022-12-17T22:29:58.401Z,102560.34
2022-12-17T22:32:43.898Z,102562.03
2022-12-17T22:36:14.424Z,102570.31
2022-12-17T22:41:44.057Z,102550.94
2022-12-17T22:44:34.690Z,102552.72
2022-12-17T22:44:51.894Z,102561.25
2022-12-17T22:46:25.590Z,102554.44
2022-12-17T22:48:54.625Z,102560.44
2022-12-17T22:51:23.024Z,102560.44
2022-12-17T22:53:52.704Z,102557.88
2022-12-17T22:56:51.978Z,102544.34
2022-12-17T22:59:08.975Z,102542.75
2022-12-17T23:01:39.391Z,102530.06
2022-12-17T23:04:06.936Z,102523.31
2022-12-17T23:06:34.001Z,102527.59
2022-12-17T23:09:01.299Z,102530.09
2022-12-17T23:11:31.378Z,102532.63
2022-12-17T23:14:03.230Z,102536.94
2022-12-17T23:16:30.263Z,102528.47
2022-12-17T23:19:00.453Z,102525.09
2022-12-17T23:21:27.569Z,102520.75
2022-12-17T23:23:56.404Z,102516.56
2022-12-17T23:26:33.342Z,102521.59
2022-12-17T23:29:07.675Z,102513.16
2022-12-17T23:31:38.689Z,102533.50
2022-12-17T23:34:10.689Z,102525.78
2022-12-17T23:36:37.658Z,102521.66
2022-12-17T23:39:06.063Z,102514.94
2022-12-17T23:41:34.353Z,102504.75
2022-12-17T23:44:08.800Z,102514.84
2022-12-17T23:46:38.975Z,102516.53
2022-12-17T23:49:10.544Z,102517.44
2022-12-17T23:51:40.348Z,102527.53
2022-12-17T23:54:07.463Z,102521.63
2022-12-17T23:56:36.640Z,102514.88
2022-12-17T23:59:04.234Z,102505.66
